Time;durP1;ratioP1;P1;durP2;ratioP2;P2;SDS_P1;SDS_P2;PMS_P1;PMS_P2;Temp;Humidity;BMP_temperature;BMP_pressure;BME280_temperature;BME280_humidity;BME280_pressure;Samples;Min_cycle;Max_cycle;Signal;HPM_P1;HPM_P2
2022/03/30 00:03:37;;;;;;;21.02;9.15;;;;;;;4.22;63.08;99652.00;8606412;33;20179;-73
2022/03/30 00:08:43;;;;;;;19.63;9.38;;;;;;;4.06;63.78;99654.84;8607327;33;20259;-74
2022/03/30 00:13:46;;;;;;;17.23;9.05;;;;;;;3.91;64.15;99655.84;8608564;33;20246;-74
2022/03/30 00:18:49;;;;;;;18.63;8.98;;;;;;;3.81;64.86;99652.06;8570626;33;20654;-74
2022/03/30 00:23:53;;;;;;;18.58;8.65;;;;;;;3.75;65.12;99649.81;8562444;33;20248;-73
2022/03/30 00:28:56;;;;;;;20.08;9.02;;;;;;;3.71;65.25;99651.81;8551002;33;20451;-72
2022/03/30 00:33:59;;;;;;;17.63;8.13;;;;;;;3.72;64.99;99638.44;8549792;33;20559;-73
2022/03/30 00:39:04;;;;;;;19.30;9.18;;;;;;;3.66;65.15;99646.78;8547509;33;20895;-73
2022/03/30 00:44:11;;;;;;;18.65;8.40;;;;;;;3.60;65.20;99647.19;8550563;33;20899;-73
2022/03/30 00:49:19;;;;;;;18.63;8.50;;;;;;;3.54;65.18;99650.25;8546181;33;20668;-73
2022/03/30 00:54:24;;;;;;;20.75;8.70;;;;;;;3.41;65.93;99644.00;8543730;33;20513;-73
2022/03/30 00:59:27;;;;;;;19.08;9.20;;;;;;;3.44;65.88;99636.69;8543963;33;20169;-73
2022/03/30 01:04:32;;;;;;;18.67;9.00;;;;;;;3.39;65.92;99632.63;8545977;33;20424;-73
2022/03/30 01:09:36;;;;;;;19.38;8.52;;;;;;;3.28;66.16;99628.81;8547856;33;20183;-73
2022/03/30 01:14:40;;;;;;;17.25;9.23;;;;;;;3.25;66.22;99615.75;8548928;33;20418;-73
2022/03/30 01:19:43;;;;;;;19.88;8.32;;;;;;;3.31;66.39;99611.84;8548324;33;20420;-73
2022/03/30 01:24:48;;;;;;;22.33;9.07;;;;;;;3.30;66.36;99596.91;8545740;33;20394;-73
2022/03/30 01:35:11;;;;;;;18.20;8.82;;;;;;;3.13;66.52;99581.19;8542680;33;20444;-73
2022/03/30 01:40:16;;;;;;;15.80;7.65;;;;;;;3.10;66.60;99563.66;8540692;33;20436;-73
2022/03/30 01:45:19;;;;;;;15.93;8.50;;;;;;;2.90;66.58;99562.22;8541147;33;20148;-73
2022/03/30 01:50:22;;;;;;;20.90;8.15;;;;;;;2.81;67.17;99552.22;8542035;33;20430;-73
2022/03/30 01:55:27;;;;;;;19.70;8.98;;;;;;;2.75;67.40;99550.78;8599466;33;21167;-73
2022/03/30 02:00:30;;;;;;;19.30;8.43;;;;;;;2.76;67.63;99549.81;8579144;33;20143;-73
2022/03/30 02:05:33;;;;;;;21.20;8.50;;;;;;;2.77;67.59;99540.94;8603037;33;20578;-73
2022/03/30 02:10:38;;;;;;;19.67;7.97;;;;;;;2.76;67.91;99533.06;8602791;33;20408;-73
2022/03/30 02:15:41;;;;;;;18.30;8.60;;;;;;;2.82;67.53;99528.22;8596849;33;20503;-73
2022/03/30 02:20:45;;;;;;;15.93;8.02;;;;;;;2.76;67.17;99523.31;8539668;33;20404;-74
2022/03/30 02:25:49;;;;;;;17.10;8.65;;;;;;;2.83;67.24;99518.50;8468760;33;20424;-74
2022/03/30 02:30:52;;;;;;;18.95;7.85;;;;;;;2.71;66.98;99514.78;8509117;33;20399;-73
2022/03/30 02:35:56;;;;;;;21.40;9.53;;;;;;;2.56;67.49;99518.41;8526420;33;20747;-71
2022/03/30 02:41:01;;;;;;;19.33;8.32;;;;;;;2.39;67.83;99511.44;8560185;33;20404;-72
2022/03/30 02:46:05;;;;;;;19.60;9.20;;;;;;;2.34;68.18;99509.06;8578666;33;20415;-73
2022/03/30 02:51:09;;;;;;;17.70;8.75;;;;;;;2.26;68.07;99490.13;8602493;33;20226;-71
2022/03/30 02:56:14;;;;;;;17.63;7.97;;;;;;;2.33;68.50;99490.59;8598778;33;20880;-72
2022/03/30 03:01:17;;;;;;;18.77;8.07;;;;;;;2.40;68.80;99484.00;8575278;33;20182;-72
2022/03/30 03:06:20;;;;;;;17.10;7.85;;;;;;;2.45;68.40;99481.91;8601932;33;20475;-74
2022/03/30 03:11:25;;;;;;;22.55;9.10;;;;;;;2.46;68.75;99485.41;8602199;33;20397;-72
2022/03/30 03:16:28;;;;;;;15.95;8.45;;;;;;;2.43;68.27;99483.78;8603920;33;20171;-71
2022/03/30 03:21:31;;;;;;;21.25;9.88;;;;;;;2.40;68.20;99489.28;8608236;33;20515;-72
2022/03/30 03:26:35;;;;;;;18.92;8.25;;;;;;;2.27;69.01;99485.69;8608789;33;20999;-72
2022/03/30 03:31:38;;;;;;;13.80;7.65;;;;;;;2.39;68.76;99479.66;8607784;33;20481;-72
2022/03/30 03:36:42;;;;;;;15.02;8.02;;;;;;;2.41;68.58;99477.72;8601799;33;20487;-72
2022/03/30 03:41:46;;;;;;;19.42;8.57;;;;;;;2.35;68.86;99476.31;8604399;33;20304;-73
2022/03/30 03:46:49;;;;;;;19.98;8.57;;;;;;;2.12;69.58;99471.56;8533833;33;20402;-72
2022/03/30 03:51:52;;;;;;;15.20;8.70;;;;;;;2.08;70.35;99475.34;8533556;33;20505;-72
2022/03/30 03:56:57;;;;;;;17.00;8.82;;;;;;;2.12;70.18;99471.56;8530204;33;20472;-72
2022/03/30 04:02:00;;;;;;;16.27;8.33;;;;;;;2.25;69.91;99475.19;8529333;33;20421;-71
2022/03/30 04:07:04;;;;;;;16.37;8.53;;;;;;;2.15;69.52;99471.38;8529227;33;20251;-71
2022/03/30 04:12:10;;;;;;;17.40;9.13;;;;;;;1.98;69.86;99467.13;8527809;33;20419;-72
2022/03/30 04:17:13;;;;;;;15.53;7.83;;;;;;;2.00;70.41;99448.47;8528897;33;20414;-72
2022/03/30 04:22:17;;;;;;;18.63;8.63;;;;;;;1.75;71.27;99446.44;8528847;33;22140;-72
2022/03/30 04:27:21;;;;;;;18.55;8.10;;;;;;;1.67;71.64;99449.53;8526292;33;20898;-72
2022/03/30 04:32:24;;;;;;;22.63;10.07;;;;;;;1.73;71.07;99442.09;8533015;33;20939;-72
2022/03/30 04:37:27;;;;;;;20.90;9.23;;;;;;;1.72;71.32;99442.16;8589816;33;21023;-72
2022/03/30 04:42:32;;;;;;;21.53;8.63;;;;;;;1.62;71.14;99436.59;8621252;33;21741;-72
2022/03/30 04:47:35;;;;;;;20.23;9.73;;;;;;;1.63;70.91;99432.13;8621631;33;20187;-72
2022/03/30 04:52:38;;;;;;;16.07;8.20;;;;;;;1.61;71.03;99434.00;8613939;33;20374;-71
2022/03/30 04:57:43;;;;;;;18.60;8.17;;;;;;;1.50;70.78;99424.06;8606665;33;20403;-71
2022/03/30 05:02:46;;;;;;;15.77;7.53;;;;;;;1.47;71.43;99426.88;8607210;33;21609;-73
2022/03/30 05:07:49;;;;;;;18.92;9.35;;;;;;;1.51;71.37;99425.78;8599891;33;20399;-71
2022/03/30 05:12:54;;;;;;;18.17;8.47;;;;;;;1.50;71.35;99419.59;8590664;33;20506;-71
2022/03/30 05:17:58;;;;;;;24.60;12.30;;;;;;;1.60;71.53;99411.16;8539251;33;20143;-71
2022/03/30 05:23:01;;;;;;;25.00;10.27;;;;;;;1.73;71.28;99417.41;8574179;33;20887;-71
2022/03/30 05:28:06;;;;;;;20.77;10.90;;;;;;;1.84;71.44;99396.44;8572868;33;20377;-74
2022/03/30 05:33:11;;;;;;;29.13;14.03;;;;;;;1.85;70.91;99403.44;8573525;33;20150;-74
2022/03/30 05:38:14;;;;;;;28.43;12.93;;;;;;;1.90;71.01;99403.16;8572327;33;21089;-71
2022/03/30 05:43:18;;;;;;;24.57;12.73;;;;;;;1.95;71.25;99412.53;8573062;33;20266;-71
2022/03/30 05:48:21;;;;;;;23.00;11.87;;;;;;;2.00;70.89;99416.66;8572228;33;20301;-71
2022/03/30 05:53:24;;;;;;;26.60;12.77;;;;;;;2.01;70.77;99413.09;8547526;33;21481;-71
2022/03/30 05:58:29;;;;;;;33.63;14.20;;;;;;;2.13;70.85;99409.69;8526548;33;20431;-71
2022/03/30 06:03:37;;;;;;;33.23;14.63;;;;;;;2.16;70.50;99407.69;8517701;33;20960;-71
2022/03/30 06:08:41;;;;;;;28.40;13.60;;;;;;;2.34;70.67;99415.47;8495580;33;20959;-71
2022/03/30 06:13:45;;;;;;;29.67;13.20;;;;;;;2.49;70.41;99413.63;8493542;33;20218;-74
2022/03/30 06:18:48;;;;;;;26.37;10.23;;;;;;;2.60;70.07;99417.34;8518365;33;20378;-74
2022/03/30 06:23:51;;;;;;;17.67;9.37;;;;;;;2.39;70.42;99414.22;8524910;33;20431;-73
2022/03/30 06:28:56;;;;;;;24.50;11.50;;;;;;;2.44;70.88;99416.59;8506137;33;20355;-73
2022/03/30 06:33:59;;;;;;;17.35;10.10;;;;;;;2.90;70.16;99418.13;8542465;33;22578;-73
2022/03/30 06:39:03;;;;;;;21.00;8.90;;;;;;;3.24;69.17;99416.81;8572333;33;20443;-74
2022/03/30 06:44:07;;;;;;;18.65;9.57;;;;;;;3.62;68.31;99419.56;8599062;33;20793;-73
2022/03/30 06:49:11;;;;;;;24.40;11.20;;;;;;;4.13;66.33;99421.38;8571904;33;20430;-73
2022/03/30 06:54:14;;;;;;;20.40;9.88;;;;;;;4.06;66.50;99420.09;8595183;33;20261;-73
2022/03/30 06:59:18;;;;;;;19.60;9.73;;;;;;;4.04;67.14;99420.22;8595590;33;20151;-74
2022/03/30 07:04:22;;;;;;;25.25;11.88;;;;;;;4.16;65.99;99413.19;8572404;33;20220;-73
2022/03/30 07:14:47;;;;;;;21.38;10.00;;;;;;;5.11;63.34;99397.59;8596642;33;20517;-73
2022/03/30 07:19:52;;;;;;;19.10;9.25;;;;;;;5.56;61.52;99393.25;8601961;33;20205;-74
2022/03/30 07:24:55;;;;;;;13.18;7.75;;;;;;;5.93;59.91;99382.47;8604778;33;20711;-74
2022/03/30 07:29:59;;;;;;;14.05;7.15;;;;;;;6.20;58.59;99387.47;8603237;33;20147;-73
2022/03/30 07:35:02;;;;;;;16.65;8.15;;;;;;;6.49;57.63;99386.97;8603093;33;20945;-73
2022/03/30 07:40:09;;;;;;;18.85;8.02;;;;;;;6.59;57.94;99390.59;8600153;33;20143;-73
2022/03/30 07:45:14;;;;;;;12.70;6.75;;;;;;;7.04;56.29;99378.00;8600273;33;20210;-72
2022/03/30 07:50:18;;;;;;;16.75;8.05;;;;;;;7.23;55.24;99372.00;8601444;33;21431;-73
2022/03/30 07:55:21;;;;;;;16.52;6.13;;;;;;;7.67;53.69;99383.44;8598633;33;20424;-73
2022/03/30 08:00:26;;;;;;;14.75;6.13;;;;;;;7.98;53.24;99388.88;8592804;33;20454;-73
2022/03/30 08:05:30;;;;;;;7.30;4.15;;;;;;;7.91;50.58;99382.34;8595100;33;20406;-73
2022/03/30 08:10:35;;;;;;;8.10;4.32;;;;;;;7.85;50.71;99377.53;8593943;33;20149;-71
2022/03/30 08:15:39;;;;;;;9.00;3.97;;;;;;;8.24;50.01;99370.56;8548441;33;20284;-71
2022/03/30 08:26:04;;;;;;;11.98;5.47;;;;;;;9.10;49.45;99370.09;8597719;33;20519;-73
2022/03/30 08:31:09;;;;;;;8.93;4.55;;;;;;;9.30;48.12;99366.47;8594929;33;20913;-73
2022/03/30 08:36:12;;;;;;;10.63;4.47;;;;;;;9.45;48.16;99367.72;8596985;33;20434;-72
2022/03/30 08:41:15;;;;;;;14.77;4.70;;;;;;;9.58;48.78;99362.06;8595573;33;20446;-72
2022/03/30 08:46:21;;;;;;;11.63;5.03;;;;;;;9.66;47.49;99361.38;8594832;33;20415;-71
2022/03/30 08:51:25;;;;;;;9.68;4.38;;;;;;;10.04;46.70;99364.97;8593900;33;20594;-71
2022/03/30 08:56:30;;;;;;;9.98;4.32;;;;;;;10.40;46.45;99365.97;8594993;33;20468;-73
2022/03/30 09:01:38;;;;;;;7.82;4.60;;;;;;;10.79;45.24;99355.03;8598635;33;20414;-72
2022/03/30 09:06:45;;;;;;;8.55;4.53;;;;;;;10.76;45.65;99352.66;8572452;33;20185;-72
2022/03/30 09:11:55;;;;;;;10.15;4.18;;;;;;;10.80;46.26;99356.72;8606112;33;20147;-73
2022/03/30 09:17:02;;;;;;;7.32;3.88;;;;;;;11.58;44.05;99361.53;8604250;33;20487;-71
2022/03/30 09:22:07;;;;;;;10.07;3.40;;;;;;;11.53;42.97;99348.56;8600079;33;20270;-72
2022/03/30 09:27:10;;;;;;;10.65;3.17;;;;;;;11.63;42.49;99345.78;8598955;33;20242;-71
2022/03/30 09:32:15;;;;;;;11.32;3.47;;;;;;;11.36;42.92;99344.91;8597563;33;20415;-71
2022/03/30 09:37:18;;;;;;;8.07;3.40;;;;;;;11.99;41.55;99341.16;8596243;33;20143;-72
2022/03/30 09:42:22;;;;;;;9.40;3.25;;;;;;;12.21;41.02;99331.69;8601789;33;20442;-71
2022/03/30 09:47:38;;;;;;;9.35;3.55;;;;;;;12.22;41.23;99327.97;8611854;33;20636;-71
2022/03/30 09:52:43;;;;;;;9.55;4.00;;;;;;;11.92;40.86;99322.09;8602635;33;20406;-74
2022/03/30 09:57:46;;;;;;;7.55;3.80;;;;;;;12.12;41.96;99325.44;8597708;33;20440;-73
2022/03/30 10:02:53;;;;;;;8.13;3.78;;;;;;;12.49;40.47;99302.72;8597944;33;20438;-73
2022/03/30 10:07:58;;;;;;;8.50;4.25;;;;;;;12.88;40.55;99299.44;8607794;33;20183;-73
2022/03/30 10:13:01;;;;;;;8.13;4.60;;;;;;;13.19;38.95;99301.50;8604486;33;20170;-73
2022/03/30 10:18:06;;;;;;;8.50;3.88;;;;;;;13.26;38.52;99299.84;8603239;33;20431;-73
2022/03/30 10:23:24;;;;;;;10.57;4.70;;;;;;;13.21;38.76;99288.72;8601043;33;21029;-73
2022/03/30 10:28:57;;;;;;;8.70;4.10;;;;;;;13.90;36.31;99292.75;8565859;33;20549;-74
2022/03/30 10:34:26;;;;;;;7.65;4.20;;;;;;;13.95;37.15;99289.50;8574932;33;20573;-73
2022/03/30 10:39:29;;;;;;;8.38;3.50;;;;;;;14.02;36.55;99276.16;8544200;33;20538;-73
2022/03/30 10:44:57;;;;;;;9.98;3.97;;;;;;;14.01;34.64;99274.47;8518657;33;20473;-73
2022/03/30 10:50:05;;;;;;;8.65;3.70;;;;;;;13.67;37.01;99276.41;8575646;33;20425;-73
2022/03/30 10:55:33;;;;;;;8.13;4.63;;;;;;;13.82;36.26;99263.06;8606434;33;20150;-72
2022/03/30 11:00:39;;;;;;;9.93;3.70;;;;;;;13.61;36.12;99260.06;8618557;33;20451;-72
2022/03/30 11:05:59;;;;;;;6.13;3.65;;;;;;;14.45;35.51;99255.06;8617742;33;21496;-72
2022/03/30 11:11:04;;;;;;;7.95;4.00;;;;;;;14.94;34.45;99252.91;8617131;33;20424;-71
2022/03/30 11:16:11;;;;;;;8.57;4.32;;;;;;;15.22;34.27;99244.22;8616164;33;20752;-73
2022/03/30 11:21:19;;;;;;;7.68;4.03;;;;;;;15.41;33.88;99232.94;8617304;33;20687;-73
2022/03/30 11:26:23;;;;;;;7.88;4.20;;;;;;;15.20;34.09;99225.50;8605077;33;20501;-73
2022/03/30 11:31:26;;;;;;;11.32;4.20;;;;;;;15.11;35.00;99214.91;8609692;33;20143;-73
2022/03/30 11:36:32;;;;;;;8.10;4.18;;;;;;;15.24;34.18;99217.84;8608822;33;20233;-73
2022/03/30 11:41:35;;;;;;;6.85;4.47;;;;;;;16.08;33.43;99213.09;8606089;33;20440;-73
2022/03/30 11:46:38;;;;;;;6.35;3.70;;;;;;;14.74;33.65;99214.69;8605287;33;20966;-73
2022/03/30 11:51:43;;;;;;;12.32;5.40;;;;;;;15.46;34.22;99219.69;8601341;33;20908;-73
2022/03/30 11:56:48;;;;;;;8.35;4.53;;;;;;;16.28;33.16;99215.22;8599683;33;20193;-73
2022/03/30 12:01:54;;;;;;;7.90;4.70;;;;;;;16.54;33.84;99207.41;8598716;33;20192;-73
2022/03/30 12:06:59;;;;;;;8.18;5.03;;;;;;;16.88;33.56;99194.19;8599068;33;20519;-73
2022/03/30 12:12:02;;;;;;;8.82;4.80;;;;;;;16.86;33.00;99197.09;8599722;33;20636;-73
2022/03/30 12:17:05;;;;;;;10.07;5.10;;;;;;;16.32;33.22;99201.13;8595365;33;20552;-73
2022/03/30 12:22:09;;;;;;;7.80;4.93;;;;;;;16.09;33.94;99194.97;8597647;33;20183;-73
2022/03/30 12:27:13;;;;;;;8.60;4.63;;;;;;;16.26;33.31;99188.31;8599175;33;20410;-72
2022/03/30 12:32:16;;;;;;;7.75;4.20;;;;;;;15.94;34.79;99186.88;8583821;33;20124;-72
2022/03/30 12:37:24;;;;;;;6.57;4.00;;;;;;;16.91;33.06;99182.97;8612361;33;20140;-74
2022/03/30 12:42:29;;;;;;;9.25;4.35;;;;;;;17.07;32.57;99184.56;8603804;33;20147;-72
2022/03/30 12:47:36;;;;;;;8.65;3.67;;;;;;;18.36;31.25;99174.94;8584551;33;20422;-72
2022/03/30 12:52:42;;;;;;;9.07;4.70;;;;;;;18.56;30.99;99169.53;8526908;33;20427;-72
2022/03/30 12:57:57;;;;;;;7.68;4.18;;;;;;;18.51;30.42;99171.19;8559141;33;20134;-72
2022/03/30 13:03:15;;;;;;;6.13;4.38;;;;;;;17.35;31.68;99169.16;8575748;33;20399;-71
2022/03/30 13:08:22;;;;;;;7.05;3.95;;;;;;;15.53;34.40;99167.56;8590889;33;20427;-72
2022/03/30 13:13:27;;;;;;;7.97;4.40;;;;;;;14.65;36.42;99171.72;8568001;33;20414;-72
2022/03/30 13:18:30;;;;;;;5.82;3.83;;;;;;;14.00;37.48;99156.69;8595914;33;20523;-72
2022/03/30 13:23:39;;;;;;;6.43;4.22;;;;;;;14.10;37.55;99155.47;8575669;33;22051;-73
2022/03/30 13:28:42;;;;;;;7.75;4.20;;;;;;;14.21;37.41;99148.00;8576586;33;20448;-72
2022/03/30 13:33:46;;;;;;;8.85;4.50;;;;;;;13.90;37.03;99138.00;8576773;33;21148;-72
2022/03/30 13:38:55;;;;;;;5.18;3.80;;;;;;;14.11;37.15;99143.63;8572861;33;20602;-72
2022/03/30 13:44:04;;;;;;;6.13;4.10;;;;;;;13.98;36.72;99137.97;8577159;33;20645;-71
2022/03/30 13:49:08;;;;;;;6.63;4.18;;;;;;;13.82;37.00;99132.66;8569988;33;20430;-72
2022/03/30 13:54:13;;;;;;;12.50;4.40;;;;;;;13.93;37.58;99130.41;8571906;33;20420;-72
2022/03/30 13:59:16;;;;;;;8.25;5.28;;;;;;;13.48;38.32;99131.94;8576763;33;20128;-72
2022/03/30 14:04:21;;;;;;;7.60;5.53;;;;;;;13.10;38.98;99124.59;8576249;33;20512;-72
2022/03/30 14:09:28;;;;;;;7.65;5.65;;;;;;;12.92;38.97;99130.19;8596011;33;20405;-72
2022/03/30 14:14:31;;;;;;;8.05;5.85;;;;;;;13.26;38.64;99127.25;8599093;33;20507;-72
2022/03/30 14:19:38;;;;;;;9.50;5.40;;;;;;;13.25;38.87;99128.28;8601189;33;21077;-73
2022/03/30 14:24:43;;;;;;;8.57;5.70;;;;;;;13.49;38.21;99124.69;8601423;33;20628;-72
2022/03/30 14:29:46;;;;;;;8.75;6.03;;;;;;;12.66;39.22;99116.88;8603287;33;20191;-71
2022/03/30 14:34:50;;;;;;;7.50;5.68;;;;;;;12.28;40.23;99120.06;8609321;33;20297;-72
2022/03/30 14:39:55;;;;;;;8.32;6.13;;;;;;;12.08;40.08;99121.34;8614936;33;20256;-73
2022/03/30 14:44:58;;;;;;;9.05;6.35;;;;;;;11.80;40.85;99116.22;8603555;33;20147;-74
2022/03/30 14:50:02;;;;;;;7.10;5.57;;;;;;;11.51;41.49;99113.91;8589761;33;20611;-73
2022/03/30 14:55:09;;;;;;;9.15;5.32;;;;;;;11.80;41.48;99113.53;8605864;33;21315;-73
2022/03/30 15:00:13;;;;;;;7.75;5.63;;;;;;;11.64;40.96;99108.09;8557398;33;20995;-72
2022/03/30 15:05:17;;;;;;;9.07;5.78;;;;;;;11.41;41.83;99105.97;8563941;33;22751;-73
2022/03/30 15:10:21;;;;;;;9.38;5.47;;;;;;;11.52;41.94;99107.53;8563325;33;20202;-73
2022/03/30 15:15:25;;;;;;;6.07;4.85;;;;;;;11.69;41.17;99093.16;8563277;33;21183;-73
2022/03/30 15:20:28;;;;;;;9.40;5.20;;;;;;;11.47;42.05;99099.13;8562945;33;20228;-72
2022/03/30 15:25:34;;;;;;;9.05;5.53;;;;;;;10.97;42.68;99099.81;8560834;33;20444;-71
2022/03/30 15:30:37;;;;;;;8.80;4.80;;;;;;;10.94;43.09;99105.50;8555177;33;20176;-73
2022/03/30 15:35:41;;;;;;;9.13;5.88;;;;;;;11.20;42.98;99105.53;8563164;33;20233;-74
2022/03/30 15:40:46;;;;;;;12.65;6.18;;;;;;;10.95;43.09;99104.50;8542192;33;20520;-72
2022/03/30 15:45:49;;;;;;;7.93;5.45;;;;;;;10.78;43.70;99101.72;8550282;33;20209;-77
2022/03/30 15:50:52;;;;;;;9.85;6.07;;;;;;;10.74;43.86;99105.69;8523265;33;20450;-72
2022/03/30 15:55:57;;;;;;;6.90;5.30;;;;;;;10.54;44.19;99098.84;8545863;33;20410;-73
2022/03/30 16:01:00;;;;;;;10.73;6.10;;;;;;;10.22;44.57;99099.38;8602728;33;20594;-73
2022/03/30 16:06:04;;;;;;;10.57;6.88;;;;;;;9.88;45.54;99092.84;8605051;33;20459;-72
2022/03/30 16:16:38;;;;;;;8.88;6.60;;;;;;;9.89;45.84;99096.38;8603307;33;20644;-72
2022/03/30 16:21:42;;;;;;;13.13;6.57;;;;;;;9.84;45.96;99090.56;8604578;33;20237;-72
2022/03/30 16:26:47;;;;;;;11.65;6.50;;;;;;;9.45;46.63;99096.16;8604001;33;20880;-72
2022/03/30 16:31:52;;;;;;;8.20;6.10;;;;;;;9.34;46.84;99099.88;8579067;33;20418;-72
2022/03/30 16:36:57;;;;;;;14.70;7.10;;;;;;;9.22;47.10;99088.50;8603265;33;20414;-72
2022/03/30 16:42:03;;;;;;;8.90;5.90;;;;;;;9.03;47.54;99096.63;8603320;33;20242;-72
2022/03/30 16:47:07;;;;;;;11.43;6.80;;;;;;;8.90;47.88;99096.09;8602966;33;20147;-72
2022/03/30 16:52:10;;;;;;;10.48;5.75;;;;;;;8.81;48.29;99105.84;8602442;33;20468;-72
2022/03/30 16:57:15;;;;;;;8.88;6.00;;;;;;;8.73;48.48;99103.88;8604478;33;20462;-72
2022/03/30 17:02:18;;;;;;;9.43;5.68;;;;;;;8.54;48.71;99099.38;8601649;33;20449;-72
2022/03/30 17:07:21;;;;;;;9.90;6.57;;;;;;;8.26;49.56;99103.75;8600477;33;20131;-72
2022/03/30 17:12:25;;;;;;;8.77;6.18;;;;;;;8.11;50.44;99100.63;8602846;33;20203;-72
2022/03/30 17:17:30;;;;;;;7.95;5.70;;;;;;;8.15;50.33;99103.88;8602322;33;20143;-72
2022/03/30 17:22:34;;;;;;;10.82;6.13;;;;;;;8.10;50.92;99111.47;8602188;33;20428;-72
2022/03/30 17:27:39;;;;;;;13.20;6.50;;;;;;;7.90;50.86;99110.63;8562434;33;20637;-72
2022/03/30 17:32:42;;;;;;;9.55;6.55;;;;;;;7.88;51.01;99105.41;8563255;33;20182;-72
2022/03/30 17:37:45;;;;;;;8.70;6.03;;;;;;;7.74;51.53;99103.13;8543071;33;20187;-72
2022/03/30 17:42:52;;;;;;;9.23;5.82;;;;;;;7.64;52.15;99099.56;8567872;33;20139;-72
2022/03/30 17:51:50;;;;;;;9.57;6.15;;;;;;;7.46;52.32;99102.03;8603473;33;20922;-72
2022/03/30 17:53:21;;;;;;;8.88;5.53;;;;;;;7.37;52.56;99109.03;8576433;33;20187;-73
2022/03/30 17:58:26;;;;;;;8.18;5.60;;;;;;;7.34;52.39;99095.97;8589006;33;20548;-73
2022/03/30 18:03:29;;;;;;;9.38;6.13;;;;;;;7.16;52.81;99101.09;8604515;33;20413;-72
2022/03/30 18:08:34;;;;;;;10.57;5.97;;;;;;;7.12;53.23;99106.84;8604493;33;20436;-73
2022/03/30 18:13:40;;;;;;;9.30;5.63;;;;;;;7.07;53.37;99107.22;8609100;33;23339;-72
2022/03/30 18:18:43;;;;;;;10.63;5.20;;;;;;;6.94;53.72;99114.59;8606589;33;20396;-72
2022/03/30 18:23:48;;;;;;;8.93;4.50;;;;;;;6.83;53.94;99119.03;8620122;33;20805;-72
2022/03/30 18:28:52;;;;;;;8.52;4.97;;;;;;;6.80;53.71;99113.06;8633543;33;20475;-73
2022/03/30 18:33:56;;;;;;;8.32;5.95;;;;;;;6.71;54.34;99130.72;8649345;33;20431;-71
2022/03/30 18:39:01;;;;;;;9.15;5.70;;;;;;;6.63;54.69;99123.38;8627007;33;20641;-72
2022/03/30 18:44:07;;;;;;;10.27;6.53;;;;;;;6.53;54.72;99121.63;8627592;33;20188;-71
2022/03/30 18:49:11;;;;;;;9.55;5.97;;;;;;;6.48;55.34;99113.16;8629918;33;21869;-72
2022/03/30 18:54:16;;;;;;;12.05;6.13;;;;;;;6.42;55.63;99121.66;8627390;33;20406;-72
2022/03/30 18:59:25;;;;;;;12.80;7.65;;;;;;;6.39;55.84;99122.78;8621374;33;20142;-72
2022/03/30 19:04:30;;;;;;;10.55;6.82;;;;;;;6.26;56.27;99124.78;8619488;33;20433;-72
2022/03/30 19:09:33;;;;;;;10.45;7.45;;;;;;;6.17;56.58;99129.91;8610054;33;20687;-72
2022/03/30 19:14:38;;;;;;;10.15;6.50;;;;;;;6.13;56.46;99131.13;8603808;33;20585;-72
2022/03/30 19:19:41;;;;;;;11.40;7.03;;;;;;;6.12;57.11;99125.94;8606542;33;20156;-72
2022/03/30 19:24:44;;;;;;;12.00;7.13;;;;;;;6.08;57.10;99127.97;8604952;33;21145;-72
2022/03/30 19:29:49;;;;;;;13.45;7.30;;;;;;;5.96;57.31;99129.00;8605642;33;20404;-72
2022/03/30 19:34:52;;;;;;;11.37;7.43;;;;;;;5.85;57.75;99126.38;8602194;33;20409;-72
2022/03/30 19:39:54;;;;;;;11.68;7.60;;;;;;;5.76;58.28;99114.66;8600286;33;20179;-72
2022/03/30 19:44:59;;;;;;;11.32;8.25;;;;;;;5.72;58.41;99124.69;8596868;33;21010;-71
2022/03/30 19:50:02;;;;;;;13.73;7.70;;;;;;;5.69;58.61;99127.59;8603352;33;20517;-72
2022/03/30 19:55:08;;;;;;;12.48;8.45;;;;;;;5.68;58.79;99128.56;8605197;33;20401;-71
2022/03/30 20:00:14;;;;;;;13.15;8.50;;;;;;;5.59;59.14;99131.97;8606469;33;21113;-72
2022/03/30 20:05:17;;;;;;;12.38;8.90;;;;;;;5.45;59.86;99132.22;8605996;33;20441;-72
2022/03/30 20:10:20;;;;;;;14.68;8.93;;;;;;;5.34;60.66;99132.22;8605906;33;20519;-72
2022/03/30 20:15:26;;;;;;;16.83;9.57;;;;;;;5.21;61.30;99125.22;8606639;33;20438;-72
2022/03/30 20:20:31;;;;;;;18.60;10.05;;;;;;;5.22;61.70;99120.75;8601522;33;20937;-71
2022/03/30 20:25:34;;;;;;;17.27;10.50;;;;;;;5.27;61.83;99121.22;8603480;33;20139;-72
2022/03/30 20:30:39;;;;;;;15.93;10.30;;;;;;;5.20;62.50;99115.53;8605775;33;20273;-72
2022/03/30 20:35:45;;;;;;;19.23;10.90;;;;;;;5.16;62.45;99113.25;8608873;33;20863;-72
2022/03/30 20:40:50;;;;;;;14.80;9.40;;;;;;;5.04;62.51;99099.06;8602774;33;20641;-72
2022/03/30 20:45:55;;;;;;;17.63;9.57;;;;;;;4.96;62.62;99107.63;8602314;33;20490;-72
2022/03/30 20:51:03;;;;;;;13.77;9.45;;;;;;;4.94;62.72;99104.25;8604751;33;20155;-72
2022/03/30 20:56:07;;;;;;;19.23;10.73;;;;;;;4.89;63.12;99109.06;8606180;33;20435;-71
2022/03/30 21:01:12;;;;;;;16.55;9.68;;;;;;;4.81;63.02;99104.34;8605372;33;20174;-71
2022/03/30 21:06:16;;;;;;;16.17;10.48;;;;;;;4.82;63.38;99099.88;8579025;33;20212;-73
2022/03/30 21:11:20;;;;;;;19.27;11.00;;;;;;;4.76;63.53;99098.53;8603617;33;20471;-72
2022/03/30 21:16:24;;;;;;;20.40;11.13;;;;;;;4.61;63.85;99095.25;8603086;33;20331;-72
2022/03/30 21:21:27;;;;;;;15.90;9.95;;;;;;;4.55;64.04;99093.06;8605091;33;20427;-72
2022/03/30 21:26:31;;;;;;;18.38;10.70;;;;;;;4.52;64.39;99095.09;8602075;33;20518;-71
2022/03/30 21:31:36;;;;;;;18.95;11.25;;;;;;;4.55;64.16;99092.19;8601621;33;20546;-71
2022/03/30 21:36:39;;;;;;;19.73;10.68;;;;;;;4.48;64.23;99085.66;8597441;33;20546;-70
2022/03/30 21:41:50;;;;;;;22.90;11.43;;;;;;;4.49;64.36;99079.38;8596480;33;20401;-71
2022/03/30 21:47:00;;;;;;;18.63;10.35;;;;;;;4.45;64.58;99081.44;8574887;33;20151;-72
2022/03/30 21:52:05;;;;;;;19.90;11.32;;;;;;;4.34;64.77;99074.25;8596371;33;20515;-72
2022/03/30 21:57:08;;;;;;;17.50;10.50;;;;;;;4.25;65.21;99063.47;8596678;33;20139;-72
2022/03/30 22:02:13;;;;;;;19.42;10.55;;;;;;;4.23;65.35;99065.41;8597766;33;20519;-72
2022/03/30 22:07:16;;;;;;;15.93;10.15;;;;;;;4.22;65.33;99066.38;8573885;33;20645;-72
2022/03/30 22:12:20;;;;;;;18.10;9.45;;;;;;;4.15;65.65;99066.00;8592242;33;21076;-71
2022/03/30 22:17:25;;;;;;;20.00;10.23;;;;;;;4.11;65.55;99060.06;8600904;33;20455;-71
2022/03/30 22:22:29;;;;;;;19.15;10.32;;;;;;;4.05;65.87;99059.66;8601636;33;20452;-72
2022/03/30 22:27:32;;;;;;;22.50;9.38;;;;;;;3.94;66.01;99055.16;8599635;33;21493;-71
2022/03/30 22:37:58;;;;;;;16.40;9.02;;;;;;;4.00;66.46;99054.69;8603683;33;20700;-71
2022/03/30 22:43:01;;;;;;;19.30;9.90;;;;;;;4.06;66.42;99048.06;8579759;33;20151;-71
2022/03/30 22:48:07;;;;;;;14.25;9.65;;;;;;;4.00;66.23;99046.72;8603127;33;21787;-71
2022/03/30 22:53:11;;;;;;;16.17;9.60;;;;;;;3.97;66.42;99043.44;8604139;33;20410;-72
2022/03/30 22:58:14;;;;;;;17.77;10.25;;;;;;;4.01;66.58;99035.13;8602958;33;20201;-72
2022/03/30 23:03:19;;;;;;;16.48;9.25;;;;;;;3.98;66.47;99037.16;8603569;33;20437;-72
2022/03/30 23:08:22;;;;;;;18.08;9.40;;;;;;;3.96;66.66;99029.31;8579025;33;20400;-71
2022/03/30 23:13:27;;;;;;;18.95;9.73;;;;;;;3.95;66.83;99025.81;8604227;33;20393;-72
2022/03/30 23:18:32;;;;;;;18.05;10.60;;;;;;;4.02;66.72;99028.00;8598744;33;20457;-71
2022/03/30 23:23:35;;;;;;;18.10;9.23;;;;;;;3.96;66.61;99031.97;8618682;33;20148;-71
2022/03/30 23:28:39;;;;;;;16.25;9.70;;;;;;;3.90;67.12;99030.63;8625730;33;20224;-71
2022/03/30 23:33:44;;;;;;;16.27;10.38;;;;;;;3.97;67.30;99023.03;8614404;33;22417;-71
2022/03/30 23:38:47;;;;;;;15.02;9.65;;;;;;;3.98;67.25;99026.53;8608345;33;20149;-72
2022/03/30 23:43:50;;;;;;;17.52;10.60;;;;;;;4.05;67.16;99030.44;8605932;33;20209;-72
2022/03/30 23:48:55;;;;;;;17.80;10.00;;;;;;;3.93;67.18;99024.25;8603650;33;20986;-71
2022/03/30 23:53:58;;;;;;;16.35;9.50;;;;;;;3.92;67.31;99014.56;8608400;33;20810;-71
2022/03/30 23:59:03;;;;;;;16.58;9.63;;;;;;;4.00;67.35;99012.16;8609917;33;20148;-72
